CDT,Max TemperatureF,Mean TemperatureF,Min TemperatureF,Max Dew PointF,MeanDew PointF,Min DewpointF,Max Humidity, Mean Humidity, Min Humidity, Max Sea Level PressureIn, Mean Sea Level PressureIn, Min Sea Level PressureIn, Max VisibilityMiles, Mean VisibilityMiles, Min VisibilityMiles, Max Wind SpeedMPH, Mean Wind SpeedMPH, Max Gust SpeedMPH,PrecipitationIn, CloudCover, Events, WindDirDegrees
2013-8-1,86,71,56,64,59,52,91,68,31,30.10,30.03,29.92,10,10,7,9,5,16,0.00,0,,245
2013-8-2,79,70,62,63,60,54,90,72,48,30.04,29.95,29.91,10,10,10,18,4,25,0.00,3,,351
2013-8-3,78,68,59,59,54,48,88,63,35,30.20,30.13,30.04,10,10,10,9,4,,0.00,2,,24
2013-8-4,80,66,52,60,54,49,90,63,39,30.21,30.14,30.05,10,10,10,13,5,17,0.00,1,,135
2013-8-5,82,72,61,69,64,58,91,77,56,30.04,29.92,29.81,10,9,2,20,6,26,0.01,3,Rain,231
2013-8-6,87,74,61,73,66,59,92,76,48,29.92,29.85,29.80,10,9,0,10,4,,0.00,1,Fog,226
2013-8-7,79,72,66,67,61,57,90,70,47,30.03,29.93,29.82,10,10,7,14,5,18,0.00,0,,351
2013-8-8,79,67,55,65,58,52,90,70,42,30.04,30.02,29.98,10,10,7,7,2,,0.00,1,,116
2013-8-9,79,70,59,64,58,51,90,70,38,30.15,30.07,30.02,10,10,7,13,4,20,0.00,2,,336
2013-8-10,83,68,54,64,56,51,91,67,36,30.22,30.17,30.09,10,10,7,7,2,,0.00,2,,195
2013-8-11,84,70,57,64,61,54,90,69,45,30.13,30.07,30.00,10,10,10,13,6,16,0.00,2,,202
2013-8-12,80,70,59,66,61,54,91,71,43,30.08,30.04,30.01,10,8,2,16,6,22,0.00,2,,357
2013-8-13,76,65,54,58,53,49,92,74,38,30.18,30.12,30.07,10,10,7,10,5,,0.00,1,,347
2013-8-14,74,64,53,57,52,46,91,68,38,30.24,30.19,30.13,10,10,7,6,1,,0.00,3,Rain,127
2013-8-15,70,64,57,56,54,50,85,71,54,30.17,30.14,30.11,10,10,10,12,5,16,0.00,7,Rain,166
2013-8-16,76,64,52,57,52,50,91,68,39,30.21,30.18,30.15,10,10,7,8,2,,0.00,2,,129
2013-8-17,79,64,50,58,52,47,92,65,31,30.24,30.19,30.13,10,9,3,9,2,,0.00,1,,143
2013-8-18,81,66,52,60,54,50,92,67,37,30.18,30.13,30.07,10,9,3,12,4,10,0.00,1,,167
2013-8-19,84,70,56,63,59,54,91,71,44,30.09,30.04,29.98,10,9,4,15,6,22,0.00,2,,182
2013-8-20,88,77,66,66,64,61,86,65,44,30.00,29.97,29.92,10,10,7,16,8,24,0.00,2,,188
2013-8-21,90,79,68,68,65,61,85,64,39,30.01,29.99,29.96,10,10,10,16,7,22,0.00,0,,208
2013-8-22,83,74,66,67,65,63,90,73,53,30.11,30.07,30.00,10,10,7,12,5,17,0.00,0,,206
2013-8-23,87,75,63,70,66,61,92,75,50,30.13,30.08,30.03,10,7,0,12,5,,0.00,3,Fog,128
2013-8-24,90,80,70,69,66,64,87,67,41,30.14,30.09,30.04,10,10,5,18,8,23,0.00,0,,167
2013-8-25,92,80,69,68,66,64,84,63,42,30.16,30.11,30.06,10,10,7,16,9,22,0.00,0,,193
2013-8-26,94,82,69,69,67,63,88,64,36,30.11,30.05,29.96,10,9,5,13,7,20,0.00,0,,199
2013-8-27,94,83,72,68,66,64,82,58,39,29.98,29.93,29.89,10,10,10,16,9,23,0.00,0,,219
2013-8-28,95,80,65,68,64,60,89,63,30,30.01,29.98,29.93,10,10,10,8,3,,0.00,0,,237
2013-8-29,93,80,66,70,66,63,89,68,38,30.04,29.99,29.92,10,10,5,12,3,16,0.00,1,,179
2013-8-30,99,82,66,73,67,63,91,65,30,29.92,29.87,29.81,10,10,4,15,5,18,0.00,1,,278
2013-8-31,89,77,65,69,64,55,90,69,32,29.88,29.84,29.79,10,10,7,8,4,,0.00,0,,318